sensor_id;sensor_type;location;lat;lon;timestamp;P1;durP1;ratioP1;P2;durP2;ratioP2
8297;SDS011;4187;42.778;23.242;2024-02-21T00:00:51;9.23;;;7.50;;
8297;SDS011;4187;42.778;23.242;2024-02-21T00:03:18;7.83;;;6.67;;
8297;SDS011;4187;42.778;23.242;2024-02-21T00:05:44;7.80;;;6.60;;
8297;SDS011;4187;42.778;23.242;2024-02-21T00:08:11;7.30;;;6.60;;
8297;SDS011;4187;42.778;23.242;2024-02-21T00:10:38;6.70;;;6.00;;
8297;SDS011;4187;42.778;23.242;2024-02-21T00:13:06;7.20;;;6.50;;
8297;SDS011;4187;42.778;23.242;2024-02-21T00:15:33;7.63;;;6.30;;
8297;SDS011;4187;42.778;23.242;2024-02-21T00:18:00;7.17;;;6.27;;
8297;SDS011;4187;42.778;23.242;2024-02-21T00:20:27;7.40;;;6.30;;
8297;SDS011;4187;42.778;23.242;2024-02-21T00:22:53;7.10;;;6.40;;
8297;SDS011;4187;42.778;23.242;2024-02-21T00:25:20;7.23;;;6.53;;
8297;SDS011;4187;42.778;23.242;2024-02-21T00:27:47;7.20;;;6.50;;
8297;SDS011;4187;42.778;23.242;2024-02-21T00:30:15;7.53;;;5.87;;
8297;SDS011;4187;42.778;23.242;2024-02-21T00:32:42;7.20;;;6.53;;
8297;SDS011;4187;42.778;23.242;2024-02-21T00:35:09;7.83;;;7.00;;
8297;SDS011;4187;42.778;23.242;2024-02-21T00:37:36;9.23;;;7.00;;
8297;SDS011;4187;42.778;23.242;2024-02-21T00:40:03;10.90;;;9.20;;
8297;SDS011;4187;42.778;23.242;2024-02-21T00:42:31;9.97;;;8.37;;
8297;SDS011;4187;42.778;23.242;2024-02-21T00:44:58;7.13;;;6.40;;
8297;SDS011;4187;42.778;23.242;2024-02-21T00:47:26;10.30;;;7.57;;
8297;SDS011;4187;42.778;23.242;2024-02-21T00:49:52;8.90;;;7.27;;
8297;SDS011;4187;42.778;23.242;2024-02-21T00:52:20;7.87;;;6.90;;
8297;SDS011;4187;42.778;23.242;2024-02-21T00:54:47;8.97;;;7.23;;
8297;SDS011;4187;42.778;23.242;2024-02-21T00:57:14;9.73;;;8.23;;
8297;SDS011;4187;42.778;23.242;2024-02-21T00:59:41;7.83;;;6.90;;
8297;SDS011;4187;42.778;23.242;2024-02-21T01:02:07;7.47;;;6.77;;
8297;SDS011;4187;42.778;23.242;2024-02-21T01:04:36;8.77;;;7.47;;
8297;SDS011;4187;42.778;23.242;2024-02-21T01:07:02;7.63;;;6.83;;
8297;SDS011;4187;42.778;23.242;2024-02-21T01:09:29;7.77;;;6.63;;
8297;SDS011;4187;42.778;23.242;2024-02-21T01:11:56;7.23;;;6.40;;
8297;SDS011;4187;42.778;23.242;2024-02-21T01:14:23;7.27;;;6.40;;
8297;SDS011;4187;42.778;23.242;2024-02-21T01:16:50;7.43;;;6.50;;
8297;SDS011;4187;42.778;23.242;2024-02-21T01:19:16;8.07;;;7.23;;
8297;SDS011;4187;42.778;23.242;2024-02-21T01:21:45;7.80;;;6.57;;
8297;SDS011;4187;42.778;23.242;2024-02-21T01:24:11;8.60;;;7.13;;
8297;SDS011;4187;42.778;23.242;2024-02-21T01:26:40;9.77;;;6.80;;
8297;SDS011;4187;42.778;23.242;2024-02-21T01:29:06;8.87;;;7.50;;
8297;SDS011;4187;42.778;23.242;2024-02-21T01:31:33;10.40;;;8.57;;
8297;SDS011;4187;42.778;23.242;2024-02-21T01:34:00;9.97;;;8.90;;
8297;SDS011;4187;42.778;23.242;2024-02-21T01:36:27;9.80;;;8.60;;
8297;SDS011;4187;42.778;23.242;2024-02-21T01:38:55;9.87;;;8.60;;
8297;SDS011;4187;42.778;23.242;2024-02-21T01:41:22;12.50;;;10.93;;
8297;SDS011;4187;42.778;23.242;2024-02-21T01:43:48;12.83;;;11.43;;
8297;SDS011;4187;42.778;23.242;2024-02-21T01:46:15;7.37;;;6.67;;
8297;SDS011;4187;42.778;23.242;2024-02-21T01:48:42;7.97;;;6.17;;
8297;SDS011;4187;42.778;23.242;2024-02-21T01:51:11;7.27;;;6.30;;
8297;SDS011;4187;42.778;23.242;2024-02-21T01:53:40;6.43;;;5.70;;
8297;SDS011;4187;42.778;23.242;2024-02-21T01:56:10;7.70;;;5.97;;
8297;SDS011;4187;42.778;23.242;2024-02-21T01:58:39;7.07;;;6.33;;
8297;SDS011;4187;42.778;23.242;2024-02-21T02:01:08;6.67;;;5.97;;
8297;SDS011;4187;42.778;23.242;2024-02-21T02:03:36;7.80;;;6.13;;
8297;SDS011;4187;42.778;23.242;2024-02-21T02:06:04;6.47;;;5.70;;
8297;SDS011;4187;42.778;23.242;2024-02-21T02:08:32;6.60;;;5.90;;
8297;SDS011;4187;42.778;23.242;2024-02-21T02:10:59;7.97;;;6.70;;
8297;SDS011;4187;42.778;23.242;2024-02-21T02:13:27;6.80;;;5.90;;
8297;SDS011;4187;42.778;23.242;2024-02-21T02:15:54;7.57;;;6.30;;
8297;SDS011;4187;42.778;23.242;2024-02-21T02:18:21;8.27;;;7.43;;
8297;SDS011;4187;42.778;23.242;2024-02-21T02:20:48;8.03;;;7.23;;
8297;SDS011;4187;42.778;23.242;2024-02-21T02:23:20;11.27;;;10.27;;
8297;SDS011;4187;42.778;23.242;2024-02-21T02:25:48;6.20;;;5.60;;
8297;SDS011;4187;42.778;23.242;2024-02-21T02:28:17;6.57;;;5.97;;
8297;SDS011;4187;42.778;23.242;2024-02-21T02:30:44;6.57;;;5.73;;
8297;SDS011;4187;42.778;23.242;2024-02-21T02:33:11;7.93;;;7.17;;
8297;SDS011;4187;42.778;23.242;2024-02-21T02:35:41;7.73;;;7.00;;
8297;SDS011;4187;42.778;23.242;2024-02-21T02:38:07;8.43;;;6.93;;
8297;SDS011;4187;42.778;23.242;2024-02-21T02:40:37;6.77;;;6.10;;
8297;SDS011;4187;42.778;23.242;2024-02-21T02:43:05;7.57;;;6.53;;
8297;SDS011;4187;42.778;23.242;2024-02-21T02:45:32;6.93;;;5.97;;
8297;SDS011;4187;42.778;23.242;2024-02-21T02:47:59;7.90;;;5.70;;
8297;SDS011;4187;42.778;23.242;2024-02-21T02:50:26;7.27;;;6.57;;
8297;SDS011;4187;42.778;23.242;2024-02-21T02:52:54;7.80;;;6.63;;
8297;SDS011;4187;42.778;23.242;2024-02-21T02:55:21;8.27;;;6.73;;
8297;SDS011;4187;42.778;23.242;2024-02-21T02:57:49;8.63;;;7.50;;
8297;SDS011;4187;42.778;23.242;2024-02-21T03:00:16;8.60;;;7.70;;
8297;SDS011;4187;42.778;23.242;2024-02-21T03:02:43;8.97;;;7.70;;
8297;SDS011;4187;42.778;23.242;2024-02-21T03:05:13;8.47;;;7.67;;
8297;SDS011;4187;42.778;23.242;2024-02-21T03:07:40;7.97;;;6.90;;
8297;SDS011;4187;42.778;23.242;2024-02-21T03:10:09;7.80;;;6.97;;
8297;SDS011;4187;42.778;23.242;2024-02-21T03:12:36;8.70;;;7.13;;
8297;SDS011;4187;42.778;23.242;2024-02-21T03:15:05;8.10;;;7.03;;
8297;SDS011;4187;42.778;23.242;2024-02-21T03:17:32;10.17;;;7.23;;
8297;SDS011;4187;42.778;23.242;2024-02-21T03:19:59;10.33;;;8.20;;
8297;SDS011;4187;42.778;23.242;2024-02-21T03:22:26;8.40;;;7.40;;
8297;SDS011;4187;42.778;23.242;2024-02-21T03:24:53;8.97;;;8.00;;
8297;SDS011;4187;42.778;23.242;2024-02-21T03:27:20;8.77;;;7.87;;
8297;SDS011;4187;42.778;23.242;2024-02-21T03:29:46;9.37;;;8.47;;
8297;SDS011;4187;42.778;23.242;2024-02-21T03:32:15;9.17;;;7.60;;
8297;SDS011;4187;42.778;23.242;2024-02-21T03:34:41;10.23;;;8.73;;
8297;SDS011;4187;42.778;23.242;2024-02-21T03:37:08;9.77;;;8.23;;
8297;SDS011;4187;42.778;23.242;2024-02-21T03:39:35;9.57;;;8.20;;
8297;SDS011;4187;42.778;23.242;2024-02-21T03:42:02;10.03;;;8.50;;
8297;SDS011;4187;42.778;23.242;2024-02-21T03:44:30;10.10;;;8.37;;
8297;SDS011;4187;42.778;23.242;2024-02-21T03:46:57;10.47;;;8.57;;
8297;SDS011;4187;42.778;23.242;2024-02-21T03:49:25;10.23;;;8.17;;
8297;SDS011;4187;42.778;23.242;2024-02-21T03:51:52;9.03;;;8.13;;
8297;SDS011;4187;42.778;23.242;2024-02-21T03:54:19;8.20;;;7.17;;
8297;SDS011;4187;42.778;23.242;2024-02-21T03:56:45;10.30;;;7.73;;
8297;SDS011;4187;42.778;23.242;2024-02-21T03:59:14;13.90;;;11.13;;
8297;SDS011;4187;42.778;23.242;2024-02-21T04:01:41;16.47;;;11.33;;
8297;SDS011;4187;42.778;23.242;2024-02-21T04:04:07;16.63;;;11.53;;
8297;SDS011;4187;42.778;23.242;2024-02-21T04:06:36;18.90;;;12.40;;
8297;SDS011;4187;42.778;23.242;2024-02-21T04:09:02;27.43;;;15.47;;
8297;SDS011;4187;42.778;23.242;2024-02-21T04:11:29;15.03;;;10.77;;
8297;SDS011;4187;42.778;23.242;2024-02-21T04:13:56;13.27;;;11.80;;
8297;SDS011;4187;42.778;23.242;2024-02-21T04:16:23;12.80;;;10.93;;
8297;SDS011;4187;42.778;23.242;2024-02-21T04:18:50;11.70;;;10.00;;
8297;SDS011;4187;42.778;23.242;2024-02-21T04:21:17;11.10;;;8.87;;
8297;SDS011;4187;42.778;23.242;2024-02-21T04:23:45;9.97;;;8.63;;
8297;SDS011;4187;42.778;23.242;2024-02-21T04:26:12;11.80;;;8.60;;
8297;SDS011;4187;42.778;23.242;2024-02-21T04:28:39;9.20;;;8.30;;
8297;SDS011;4187;42.778;23.242;2024-02-21T04:31:05;11.90;;;9.53;;
8297;SDS011;4187;42.778;23.242;2024-02-21T04:33:32;11.10;;;8.87;;
8297;SDS011;4187;42.778;23.242;2024-02-21T04:35:59;9.97;;;8.97;;
8297;SDS011;4187;42.778;23.242;2024-02-21T04:38:27;11.60;;;10.40;;
8297;SDS011;4187;42.778;23.242;2024-02-21T04:40:55;10.60;;;9.20;;
8297;SDS011;4187;42.778;23.242;2024-02-21T04:43:23;11.07;;;8.83;;
8297;SDS011;4187;42.778;23.242;2024-02-21T04:45:50;11.37;;;8.83;;
8297;SDS011;4187;42.778;23.242;2024-02-21T04:48:18;10.07;;;8.93;;
8297;SDS011;4187;42.778;23.242;2024-02-21T04:50:45;11.30;;;9.30;;
8297;SDS011;4187;42.778;23.242;2024-02-21T04:53:12;12.43;;;10.13;;
8297;SDS011;4187;42.778;23.242;2024-02-21T04:55:39;11.67;;;9.23;;
8297;SDS011;4187;42.778;23.242;2024-02-21T04:58:08;11.47;;;9.90;;
8297;SDS011;4187;42.778;23.242;2024-02-21T05:00:34;10.80;;;9.67;;
8297;SDS011;4187;42.778;23.242;2024-02-21T05:03:01;11.70;;;9.70;;
8297;SDS011;4187;42.778;23.242;2024-02-21T05:05:28;11.37;;;10.13;;
8297;SDS011;4187;42.778;23.242;2024-02-21T05:07:55;13.37;;;10.47;;
8297;SDS011;4187;42.778;23.242;2024-02-21T05:10:22;11.17;;;9.90;;
8297;SDS011;4187;42.778;23.242;2024-02-21T05:12:49;12.63;;;10.27;;
8297;SDS011;4187;42.778;23.242;2024-02-21T05:15:17;12.67;;;10.80;;
8297;SDS011;4187;42.778;23.242;2024-02-21T05:17:44;13.47;;;11.07;;
8297;SDS011;4187;42.778;23.242;2024-02-21T05:20:11;12.53;;;10.60;;
8297;SDS011;4187;42.778;23.242;2024-02-21T05:22:38;13.23;;;9.93;;
8297;SDS011;4187;42.778;23.242;2024-02-21T05:25:05;11.87;;;10.40;;
8297;SDS011;4187;42.778;23.242;2024-02-21T05:27:32;16.33;;;12.00;;
8297;SDS011;4187;42.778;23.242;2024-02-21T05:30:00;13.37;;;11.33;;
8297;SDS011;4187;42.778;23.242;2024-02-21T05:32:29;14.77;;;11.80;;
8297;SDS011;4187;42.778;23.242;2024-02-21T05:34:55;14.53;;;11.23;;
8297;SDS011;4187;42.778;23.242;2024-02-21T05:37:23;12.37;;;10.53;;
8297;SDS011;4187;42.778;23.242;2024-02-21T05:39:50;13.97;;;11.10;;
8297;SDS011;4187;42.778;23.242;2024-02-21T05:42:16;14.23;;;11.43;;
8297;SDS011;4187;42.778;23.242;2024-02-21T05:44:43;12.87;;;10.73;;
8297;SDS011;4187;42.778;23.242;2024-02-21T05:47:10;17.13;;;12.30;;
8297;SDS011;4187;42.778;23.242;2024-02-21T05:49:41;14.40;;;11.17;;
8297;SDS011;4187;42.778;23.242;2024-02-21T05:52:08;13.23;;;10.97;;
8297;SDS011;4187;42.778;23.242;2024-02-21T05:54:37;14.03;;;11.27;;
8297;SDS011;4187;42.778;23.242;2024-02-21T05:57:04;15.57;;;11.90;;
8297;SDS011;4187;42.778;23.242;2024-02-21T05:59:31;13.77;;;11.53;;
8297;SDS011;4187;42.778;23.242;2024-02-21T06:01:57;14.53;;;12.30;;
8297;SDS011;4187;42.778;23.242;2024-02-21T06:04:24;16.97;;;13.30;;
8297;SDS011;4187;42.778;23.242;2024-02-21T06:06:52;15.03;;;12.47;;
8297;SDS011;4187;42.778;23.242;2024-02-21T06:09:19;17.80;;;13.23;;
8297;SDS011;4187;42.778;23.242;2024-02-21T06:11:46;17.67;;;13.67;;
8297;SDS011;4187;42.778;23.242;2024-02-21T06:14:14;15.50;;;11.70;;
8297;SDS011;4187;42.778;23.242;2024-02-21T06:16:41;14.70;;;11.90;;
8297;SDS011;4187;42.778;23.242;2024-02-21T06:19:09;14.50;;;12.50;;
8297;SDS011;4187;42.778;23.242;2024-02-21T06:21:36;16.70;;;13.00;;
8297;SDS011;4187;42.778;23.242;2024-02-21T06:24:04;18.70;;;13.70;;
8297;SDS011;4187;42.778;23.242;2024-02-21T06:26:31;16.07;;;13.27;;
8297;SDS011;4187;42.778;23.242;2024-02-21T06:28:58;14.50;;;12.77;;
8297;SDS011;4187;42.778;23.242;2024-02-21T06:31:26;16.67;;;13.60;;
8297;SDS011;4187;42.778;23.242;2024-02-21T06:33:54;18.47;;;14.97;;
8297;SDS011;4187;42.778;23.242;2024-02-21T06:36:22;17.97;;;14.73;;
8297;SDS011;4187;42.778;23.242;2024-02-21T06:38:48;19.47;;;14.57;;
8297;SDS011;4187;42.778;23.242;2024-02-21T06:41:17;17.90;;;13.60;;
8297;SDS011;4187;42.778;23.242;2024-02-21T06:43:44;16.87;;;13.57;;
8297;SDS011;4187;42.778;23.242;2024-02-21T06:46:11;15.90;;;13.57;;
8297;SDS011;4187;42.778;23.242;2024-02-21T06:48:38;16.83;;;14.07;;
8297;SDS011;4187;42.778;23.242;2024-02-21T06:51:05;19.10;;;14.70;;
8297;SDS011;4187;42.778;23.242;2024-02-21T06:53:32;17.37;;;14.30;;
8297;SDS011;4187;42.778;23.242;2024-02-21T06:55:58;21.57;;;16.57;;
8297;SDS011;4187;42.778;23.242;2024-02-21T06:58:27;17.57;;;14.67;;
8297;SDS011;4187;42.778;23.242;2024-02-21T07:00:53;21.17;;;15.80;;
8297;SDS011;4187;42.778;23.242;2024-02-21T07:03:20;17.63;;;13.57;;
8297;SDS011;4187;42.778;23.242;2024-02-21T07:05:49;18.83;;;14.57;;
8297;SDS011;4187;42.778;23.242;2024-02-21T07:08:15;18.45;;;13.98;;
8297;SDS011;4187;42.778;23.242;2024-02-21T07:10:42;17.80;;;14.73;;
8297;SDS011;4187;42.778;23.242;2024-02-21T07:13:09;19.17;;;15.57;;
8297;SDS011;4187;42.778;23.242;2024-02-21T07:15:37;19.33;;;14.97;;
8297;SDS011;4187;42.778;23.242;2024-02-21T07:18:04;17.73;;;14.93;;
8297;SDS011;4187;42.778;23.242;2024-02-21T07:20:31;19.43;;;14.67;;
8297;SDS011;4187;42.778;23.242;2024-02-21T07:23:01;21.17;;;15.80;;
8297;SDS011;4187;42.778;23.242;2024-02-21T07:25:28;20.23;;;16.07;;
8297;SDS011;4187;42.778;23.242;2024-02-21T07:27:55;26.60;;;18.87;;
8297;SDS011;4187;42.778;23.242;2024-02-21T07:30:22;18.17;;;15.50;;
8297;SDS011;4187;42.778;23.242;2024-02-21T07:32:50;22.53;;;16.47;;
8297;SDS011;4187;42.778;23.242;2024-02-21T07:35:17;21.33;;;17.17;;
8297;SDS011;4187;42.778;23.242;2024-02-21T07:37:44;27.60;;;21.67;;
8297;SDS011;4187;42.778;23.242;2024-02-21T07:40:14;22.63;;;18.93;;
8297;SDS011;4187;42.778;23.242;2024-02-21T07:42:42;16.33;;;14.57;;
8297;SDS011;4187;42.778;23.242;2024-02-21T07:45:09;21.03;;;14.30;;
8297;SDS011;4187;42.778;23.242;2024-02-21T07:47:37;16.37;;;14.03;;
8297;SDS011;4187;42.778;23.242;2024-02-21T07:50:05;19.90;;;13.97;;
8297;SDS011;4187;42.778;23.242;2024-02-21T07:52:34;17.95;;;13.95;;
8297;SDS011;4187;42.778;23.242;2024-02-21T07:55:01;16.52;;;13.50;;
8297;SDS011;4187;42.778;23.242;2024-02-21T07:57:28;17.60;;;14.02;;
8297;SDS011;4187;42.778;23.242;2024-02-21T07:59:55;13.30;;;11.18;;
8297;SDS011;4187;42.778;23.242;2024-02-21T08:02:22;13.07;;;11.68;;
8297;SDS011;4187;42.778;23.242;2024-02-21T08:04:49;14.07;;;11.73;;
8297;SDS011;4187;42.778;23.242;2024-02-21T08:07:17;12.82;;;11.23;;
8297;SDS011;4187;42.778;23.242;2024-02-21T08:09:44;15.88;;;11.20;;
8297;SDS011;4187;42.778;23.242;2024-02-21T08:12:10;12.52;;;11.13;;
8297;SDS011;4187;42.778;23.242;2024-02-21T08:14:37;11.93;;;10.60;;
8297;SDS011;4187;42.778;23.242;2024-02-21T08:17:04;11.90;;;10.70;;
8297;SDS011;4187;42.778;23.242;2024-02-21T08:19:32;12.80;;;11.30;;
8297;SDS011;4187;42.778;23.242;2024-02-21T08:21:59;16.00;;;13.07;;
8297;SDS011;4187;42.778;23.242;2024-02-21T08:24:27;14.20;;;12.70;;
8297;SDS011;4187;42.778;23.242;2024-02-21T08:26:54;13.63;;;12.13;;
8297;SDS011;4187;42.778;23.242;2024-02-21T08:29:21;14.73;;;12.40;;
8297;SDS011;4187;42.778;23.242;2024-02-21T08:31:48;13.50;;;12.10;;
8297;SDS011;4187;42.778;23.242;2024-02-21T08:34:14;14.70;;;11.85;;
8297;SDS011;4187;42.778;23.242;2024-02-21T08:36:41;13.82;;;11.73;;
8297;SDS011;4187;42.778;23.242;2024-02-21T08:39:09;13.50;;;12.20;;
8297;SDS011;4187;42.778;23.242;2024-02-21T08:41:37;14.45;;;11.68;;
8297;SDS011;4187;42.778;23.242;2024-02-21T08:44:04;13.15;;;11.38;;
8297;SDS011;4187;42.778;23.242;2024-02-21T08:46:32;13.52;;;12.23;;
8297;SDS011;4187;42.778;23.242;2024-02-21T08:49:06;14.90;;;13.38;;
8297;SDS011;4187;42.778;23.242;2024-02-21T08:51:33;13.85;;;11.75;;
8297;SDS011;4187;42.778;23.242;2024-02-21T08:54:00;15.63;;;11.93;;
8297;SDS011;4187;42.778;23.242;2024-02-21T08:56:29;14.57;;;13.05;;
8297;SDS011;4187;42.778;23.242;2024-02-21T08:58:58;14.05;;;12.65;;
8297;SDS011;4187;42.778;23.242;2024-02-21T09:01:25;13.70;;;12.30;;
8297;SDS011;4187;42.778;23.242;2024-02-21T09:03:52;13.68;;;12.27;;
8297;SDS011;4187;42.778;23.242;2024-02-21T09:06:19;15.32;;;12.32;;
8297;SDS011;4187;42.778;23.242;2024-02-21T09:08:46;14.55;;;12.45;;
8297;SDS011;4187;42.778;23.242;2024-02-21T09:11:12;13.43;;;12.02;;
8297;SDS011;4187;42.778;23.242;2024-02-21T09:13:39;15.77;;;12.38;;
8297;SDS011;4187;42.778;23.242;2024-02-21T09:16:07;13.60;;;12.20;;
8297;SDS011;4187;42.778;23.242;2024-02-21T09:18:34;15.82;;;13.50;;
8297;SDS011;4187;42.778;23.242;2024-02-21T09:21:01;15.10;;;12.90;;
8297;SDS011;4187;42.778;23.242;2024-02-21T09:23:28;13.57;;;12.00;;
8297;SDS011;4187;42.778;23.242;2024-02-21T09:25:56;13.75;;;12.35;;
8297;SDS011;4187;42.778;23.242;2024-02-21T09:28:25;14.35;;;12.02;;
8297;SDS011;4187;42.778;23.242;2024-02-21T09:30:52;14.13;;;11.35;;
8297;SDS011;4187;42.778;23.242;2024-02-21T09:33:23;14.20;;;12.00;;
8297;SDS011;4187;42.778;23.242;2024-02-21T09:35:50;12.63;;;11.40;;
8297;SDS011;4187;42.778;23.242;2024-02-21T09:38:18;11.80;;;10.68;;
8297;SDS011;4187;42.778;23.242;2024-02-21T09:40:46;12.35;;;11.05;;
8297;SDS011;4187;42.778;23.242;2024-02-21T09:43:15;11.38;;;10.18;;
8297;SDS011;4187;42.778;23.242;2024-02-21T09:45:46;12.60;;;9.95;;
8297;SDS011;4187;42.778;23.242;2024-02-21T09:48:25;11.63;;;9.82;;
8297;SDS011;4187;42.778;23.242;2024-02-21T09:50:57;11.13;;;9.50;;
8297;SDS011;4187;42.778;23.242;2024-02-21T09:53:25;11.20;;;9.88;;
8297;SDS011;4187;42.778;23.242;2024-02-21T09:55:53;11.77;;;10.45;;
8297;SDS011;4187;42.778;23.242;2024-02-21T09:58:21;9.93;;;8.93;;
8297;SDS011;4187;42.778;23.242;2024-02-21T10:00:51;13.05;;;10.25;;
8297;SDS011;4187;42.778;23.242;2024-02-21T10:03:24;11.30;;;10.18;;
8297;SDS011;4187;42.778;23.242;2024-02-21T10:05:50;11.05;;;9.88;;
8297;SDS011;4187;42.778;23.242;2024-02-21T10:08:18;12.40;;;9.38;;
8297;SDS011;4187;42.778;23.242;2024-02-21T10:10:46;11.60;;;9.48;;
8297;SDS011;4187;42.778;23.242;2024-02-21T10:13:23;10.48;;;9.48;;
8297;SDS011;4187;42.778;23.242;2024-02-21T10:16:02;10.75;;;9.75;;
8297;SDS011;4187;42.778;23.242;2024-02-21T10:18:31;15.07;;;13.30;;
8297;SDS011;4187;42.778;23.242;2024-02-21T10:21:02;10.73;;;9.73;;
8297;SDS011;4187;42.778;23.242;2024-02-21T10:23:40;10.52;;;9.55;;
8297;SDS011;4187;42.778;23.242;2024-02-21T10:26:10;8.77;;;7.97;;
8297;SDS011;4187;42.778;23.242;2024-02-21T10:28:37;8.95;;;8.05;;
8297;SDS011;4187;42.778;23.242;2024-02-21T10:31:07;8.88;;;6.72;;
8297;SDS011;4187;42.778;23.242;2024-02-21T10:33:35;7.68;;;6.95;;
8297;SDS011;4187;42.778;23.242;2024-02-21T10:36:06;8.50;;;7.68;;
8297;SDS011;4187;42.778;23.242;2024-02-21T10:38:34;6.93;;;6.07;;
8297;SDS011;4187;42.778;23.242;2024-02-21T10:41:01;6.40;;;5.78;;
8297;SDS011;4187;42.778;23.242;2024-02-21T10:43:30;7.68;;;6.07;;
8297;SDS011;4187;42.778;23.242;2024-02-21T10:46:03;6.93;;;5.50;;
8297;SDS011;4187;42.778;23.242;2024-02-21T10:48:33;6.63;;;5.90;;
8297;SDS011;4187;42.778;23.242;2024-02-21T10:51:09;7.50;;;4.80;;
8297;SDS011;4187;42.778;23.242;2024-02-21T10:53:41;6.75;;;5.25;;
8297;SDS011;4187;42.778;23.242;2024-02-21T10:56:19;4.90;;;4.38;;
8297;SDS011;4187;42.778;23.242;2024-02-21T10:58:49;5.57;;;5.00;;
8297;SDS011;4187;42.778;23.242;2024-02-21T11:01:17;6.03;;;4.65;;
8297;SDS011;4187;42.778;23.242;2024-02-21T11:03:46;5.70;;;4.70;;
8297;SDS011;4187;42.778;23.242;2024-02-21T11:06:16;6.10;;;5.50;;
8297;SDS011;4187;42.778;23.242;2024-02-21T11:08:45;4.90;;;4.40;;
8297;SDS011;4187;42.778;23.242;2024-02-21T11:11:14;4.80;;;4.40;;
8297;SDS011;4187;42.778;23.242;2024-02-21T11:13:43;5.78;;;5.03;;
8297;SDS011;4187;42.778;23.242;2024-02-21T11:16:11;5.68;;;4.70;;
8297;SDS011;4187;42.778;23.242;2024-02-21T11:18:49;7.60;;;4.82;;
8297;SDS011;4187;42.778;23.242;2024-02-21T11:21:16;5.35;;;4.90;;
8297;SDS011;4187;42.778;23.242;2024-02-21T11:23:54;6.28;;;5.68;;
8297;SDS011;4187;42.778;23.242;2024-02-21T11:26:21;7.68;;;5.07;;
8297;SDS011;4187;42.778;23.242;2024-02-21T11:28:55;8.00;;;6.53;;
8297;SDS011;4187;42.778;23.242;2024-02-21T11:31:23;6.95;;;6.00;;
8297;SDS011;4187;42.778;23.242;2024-02-21T11:33:53;6.28;;;5.35;;
8297;SDS011;4187;42.778;23.242;2024-02-21T11:36:24;14.65;;;10.55;;
8297;SDS011;4187;42.778;23.242;2024-02-21T11:38:51;13.82;;;10.32;;
8297;SDS011;4187;42.778;23.242;2024-02-21T11:41:17;7.38;;;5.72;;
8297;SDS011;4187;42.778;23.242;2024-02-21T11:43:46;8.20;;;7.03;;
8297;SDS011;4187;42.778;23.242;2024-02-21T11:46:13;7.00;;;6.32;;
8297;SDS011;4187;42.778;23.242;2024-02-21T11:48:40;7.55;;;5.07;;
8297;SDS011;4187;42.778;23.242;2024-02-21T11:51:10;5.93;;;5.32;;
8297;SDS011;4187;42.778;23.242;2024-02-21T11:53:47;6.05;;;5.45;;
8297;SDS011;4187;42.778;23.242;2024-02-21T11:56:14;7.22;;;5.07;;
8297;SDS011;4187;42.778;23.242;2024-02-21T11:58:40;6.50;;;4.70;;
8297;SDS011;4187;42.778;23.242;2024-02-21T12:01:08;7.03;;;5.90;;
8297;SDS011;4187;42.778;23.242;2024-02-21T12:03:35;5.80;;;5.20;;
8297;SDS011;4187;42.778;23.242;2024-02-21T12:06:02;6.35;;;5.75;;
8297;SDS011;4187;42.778;23.242;2024-02-21T12:08:41;5.95;;;5.35;;
8297;SDS011;4187;42.778;23.242;2024-02-21T12:11:15;5.90;;;5.20;;
8297;SDS011;4187;42.778;23.242;2024-02-21T12:13:44;5.97;;;5.38;;
8297;SDS011;4187;42.778;23.242;2024-02-21T12:16:14;7.65;;;6.85;;
8297;SDS011;4187;42.778;23.242;2024-02-21T12:18:43;8.20;;;6.00;;
8297;SDS011;4187;42.778;23.242;2024-02-21T12:21:10;11.15;;;6.93;;
8297;SDS011;4187;42.778;23.242;2024-02-21T12:23:37;11.40;;;7.65;;
8297;SDS011;4187;42.778;23.242;2024-02-21T12:26:06;12.65;;;8.20;;
8297;SDS011;4187;42.778;23.242;2024-02-21T12:28:35;10.30;;;7.53;;
8297;SDS011;4187;42.778;23.242;2024-02-21T12:31:04;9.43;;;7.55;;
8297;SDS011;4187;42.778;23.242;2024-02-21T12:33:32;8.95;;;7.70;;
8297;SDS011;4187;42.778;23.242;2024-02-21T12:36:00;14.68;;;7.78;;
8297;SDS011;4187;42.778;23.242;2024-02-21T12:38:29;12.43;;;7.97;;
8297;SDS011;4187;42.778;23.242;2024-02-21T12:40:56;8.40;;;6.65;;
8297;SDS011;4187;42.778;23.242;2024-02-21T12:43:24;9.85;;;7.18;;
8297;SDS011;4187;42.778;23.242;2024-02-21T12:45:51;11.20;;;7.70;;
8297;SDS011;4187;42.778;23.242;2024-02-21T12:48:18;9.00;;;7.38;;
8297;SDS011;4187;42.778;23.242;2024-02-21T12:50:48;9.18;;;8.27;;
8297;SDS011;4187;42.778;23.242;2024-02-21T12:53:16;10.25;;;8.45;;
8297;SDS011;4187;42.778;23.242;2024-02-21T12:55:44;8.30;;;7.13;;
8297;SDS011;4187;42.778;23.242;2024-02-21T12:58:11;8.77;;;7.70;;
8297;SDS011;4187;42.778;23.242;2024-02-21T13:00:40;11.02;;;7.10;;
8297;SDS011;4187;42.778;23.242;2024-02-21T13:03:07;7.10;;;6.38;;
8297;SDS011;4187;42.778;23.242;2024-02-21T13:05:37;6.30;;;5.70;;
8297;SDS011;4187;42.778;23.242;2024-02-21T13:08:05;7.18;;;5.47;;
8297;SDS011;4187;42.778;23.242;2024-02-21T13:10:32;6.45;;;5.85;;
8297;SDS011;4187;42.778;23.242;2024-02-21T13:12:59;6.82;;;6.13;;
8297;SDS011;4187;42.778;23.242;2024-02-21T13:15:26;8.57;;;7.70;;
8297;SDS011;4187;42.778;23.242;2024-02-21T13:17:55;8.68;;;6.75;;
8297;SDS011;4187;42.778;23.242;2024-02-21T13:20:25;10.35;;;7.63;;
8297;SDS011;4187;42.778;23.242;2024-02-21T13:22:53;15.90;;;7.70;;
8297;SDS011;4187;42.778;23.242;2024-02-21T13:25:20;8.52;;;6.65;;
8297;SDS011;4187;42.778;23.242;2024-02-21T13:27:47;8.05;;;7.25;;
8297;SDS011;4187;42.778;23.242;2024-02-21T13:30:14;9.43;;;7.07;;
8297;SDS011;4187;42.778;23.242;2024-02-21T13:32:43;8.70;;;7.68;;
8297;SDS011;4187;42.778;23.242;2024-02-21T13:35:12;8.98;;;8.07;;
8297;SDS011;4187;42.778;23.242;2024-02-21T13:37:40;9.48;;;7.57;;
8297;SDS011;4187;42.778;23.242;2024-02-21T13:40:07;8.50;;;6.72;;
8297;SDS011;4187;42.778;23.242;2024-02-21T13:42:35;8.80;;;7.78;;
8297;SDS011;4187;42.778;23.242;2024-02-21T13:45:03;8.00;;;6.00;;
8297;SDS011;4187;42.778;23.242;2024-02-21T13:47:30;6.45;;;5.85;;
8297;SDS011;4187;42.778;23.242;2024-02-21T13:49:57;5.85;;;5.22;;
8297;SDS011;4187;42.778;23.242;2024-02-21T13:52:26;5.93;;;5.03;;
8297;SDS011;4187;42.778;23.242;2024-02-21T13:54:52;6.75;;;5.28;;
8297;SDS011;4187;42.778;23.242;2024-02-21T13:57:19;6.97;;;5.93;;
8297;SDS011;4187;42.778;23.242;2024-02-21T13:59:48;6.53;;;5.70;;
8297;SDS011;4187;42.778;23.242;2024-02-21T14:02:16;8.35;;;6.68;;
8297;SDS011;4187;42.778;23.242;2024-02-21T14:04:42;9.65;;;7.97;;
8297;SDS011;4187;42.778;23.242;2024-02-21T14:07:09;8.10;;;6.93;;
8297;SDS011;4187;42.778;23.242;2024-02-21T14:09:38;9.93;;;6.75;;
8297;SDS011;4187;42.778;23.242;2024-02-21T14:12:05;7.95;;;6.05;;
8297;SDS011;4187;42.778;23.242;2024-02-21T14:14:33;8.52;;;6.65;;
8297;SDS011;4187;42.778;23.242;2024-02-21T14:17:00;8.48;;;6.30;;
8297;SDS011;4187;42.778;23.242;2024-02-21T14:19:28;7.85;;;6.70;;
8297;SDS011;4187;42.778;23.242;2024-02-21T14:21:55;7.35;;;6.18;;
8297;SDS011;4187;42.778;23.242;2024-02-21T14:24:22;9.10;;;6.40;;
8297;SDS011;4187;42.778;23.242;2024-02-21T14:26:50;7.32;;;6.63;;
8297;SDS011;4187;42.778;23.242;2024-02-21T14:29:17;8.07;;;6.65;;
8297;SDS011;4187;42.778;23.242;2024-02-21T14:31:44;7.28;;;6.57;;
8297;SDS011;4187;42.778;23.242;2024-02-21T14:34:11;8.07;;;6.72;;
8297;SDS011;4187;42.778;23.242;2024-02-21T14:36:38;6.75;;;5.97;;
8297;SDS011;4187;42.778;23.242;2024-02-21T14:39:05;7.95;;;6.30;;
8297;SDS011;4187;42.778;23.242;2024-02-21T14:41:32;6.57;;;5.97;;
8297;SDS011;4187;42.778;23.242;2024-02-21T14:44:01;8.23;;;6.95;;
8297;SDS011;4187;42.778;23.242;2024-02-21T14:46:28;8.45;;;7.05;;
8297;SDS011;4187;42.778;23.242;2024-02-21T14:48:55;8.50;;;7.22;;
8297;SDS011;4187;42.778;23.242;2024-02-21T14:51:22;9.60;;;7.80;;
8297;SDS011;4187;42.778;23.242;2024-02-21T14:53:49;9.00;;;7.25;;